createdAt,value
2022-10-13T00:00:46.748Z,8.34
2022-10-13T00:03:13.252Z,8.36
2022-10-13T00:05:42.116Z,8.30
2022-10-13T00:08:09.556Z,8.28
2022-10-13T00:10:38.550Z,8.24
2022-10-13T00:13:06.315Z,8.23
2022-10-13T00:15:33.340Z,8.17
2022-10-13T00:17:59.829Z,8.16
2022-10-13T00:20:26.359Z,8.12
2022-10-13T00:22:52.793Z,8.05
2022-10-13T00:25:19.315Z,8.08
2022-10-13T00:27:45.732Z,8.08
2022-10-13T00:30:12.251Z,8.06
2022-10-13T00:32:38.931Z,7.99
2022-10-13T00:35:05.655Z,8.01
2022-10-13T00:37:32.135Z,8.00
2022-10-13T00:39:59.001Z,7.90
2022-10-13T00:42:28.340Z,7.83
2022-10-13T00:45:02.037Z,7.89
2022-10-13T00:47:32.891Z,7.81
2022-10-13T00:49:59.756Z,7.77
2022-10-13T00:52:26.949Z,7.74
2022-10-13T00:54:55.563Z,7.69
2022-10-13T00:57:22.722Z,7.75
2022-10-13T00:59:49.340Z,7.78
2022-10-13T01:02:16.144Z,7.76
2022-10-13T01:04:47.258Z,7.73
2022-10-13T01:07:17.426Z,7.74
2022-10-13T01:09:47.248Z,7.76
2022-10-13T01:12:29.468Z,7.82
2022-10-13T01:15:04.055Z,7.84
2022-10-13T01:17:38.943Z,7.87
2022-10-13T01:20:43.553Z,7.95
2022-10-13T01:23:53.125Z,8.00
2022-10-13T01:27:04.121Z,8.12
2022-10-13T01:29:50.923Z,8.23
2022-10-13T01:32:29.583Z,8.30
2022-10-13T01:35:12.220Z,8.40
2022-10-13T01:37:39.959Z,8.47
2022-10-13T01:40:06.590Z,8.53
2022-10-13T01:43:02.154Z,8.57
2022-10-13T01:45:32.382Z,8.58
2022-10-13T01:48:00.917Z,8.63
2022-10-13T01:50:28.099Z,8.71
2022-10-13T01:52:55.150Z,8.72
2022-10-13T01:55:21.583Z,8.63
2022-10-13T01:57:48.081Z,8.66
2022-10-13T02:00:17.067Z,8.55
2022-10-13T02:02:52.790Z,8.63
2022-10-13T02:05:29.999Z,8.56
2022-10-13T02:08:04.628Z,8.63
2022-10-13T02:10:44.796Z,8.61
2022-10-13T02:13:13.347Z,8.60
2022-10-13T02:15:43.456Z,8.63
2022-10-13T02:18:12.936Z,8.64
2022-10-13T02:20:41.374Z,8.68
2022-10-13T02:23:11.953Z,8.64
2022-10-13T02:25:47.603Z,8.59
2022-10-13T02:28:15.274Z,8.67
2022-10-13T02:30:42.167Z,8.65
2022-10-13T02:33:09.052Z,8.70
2022-10-13T02:35:35.695Z,8.70
2022-10-13T02:38:02.257Z,8.78
2022-10-13T02:40:28.833Z,8.82
2022-10-13T02:42:55.544Z,8.85
2022-10-13T02:45:22.300Z,8.90
2022-10-13T02:47:48.764Z,8.87
2022-10-13T02:50:15.325Z,8.87
2022-10-13T02:52:41.768Z,9.01
2022-10-13T02:55:08.531Z,9.00
2022-10-13T02:57:35.321Z,8.97
2022-10-13T03:00:01.945Z,8.94
2022-10-13T03:02:28.521Z,9.05
2022-10-13T03:04:55.013Z,9.00
2022-10-13T03:07:21.659Z,8.94
2022-10-13T03:09:48.163Z,8.83
2022-10-13T03:12:14.778Z,8.75
2022-10-13T03:14:41.303Z,8.69
2022-10-13T03:17:12.459Z,8.71
2022-10-13T03:19:39.881Z,8.69
2022-10-13T03:22:06.468Z,8.64
2022-10-13T03:24:32.938Z,8.63
2022-10-13T03:26:59.397Z,8.66
2022-10-13T03:29:25.904Z,8.62
2022-10-13T03:31:52.418Z,8.51
2022-10-13T03:34:20.295Z,8.50
2022-10-13T03:36:47.069Z,8.47
2022-10-13T03:39:13.788Z,8.45
2022-10-13T03:41:40.290Z,8.40
2022-10-13T03:44:07.576Z,8.44
2022-10-13T03:46:35.095Z,8.48
2022-10-13T03:49:02.047Z,8.52
2022-10-13T03:51:28.756Z,8.55
2022-10-13T03:53:55.212Z,8.55
2022-10-13T03:56:24.086Z,8.66
2022-10-13T03:58:54.270Z,8.77
2022-10-13T04:01:23.218Z,8.79
2022-10-13T04:03:51.942Z,8.82
2022-10-13T04:06:18.495Z,8.84
2022-10-13T04:08:45.056Z,8.83
2022-10-13T04:11:14.181Z,8.85
2022-10-13T04:13:41.581Z,8.84
2022-10-13T04:16:17.463Z,8.80
2022-10-13T04:18:45.133Z,8.76
2022-10-13T04:21:14.339Z,8.72
2022-10-13T04:23:40.803Z,8.72
2022-10-13T04:26:07.364Z,8.70
2022-10-13T04:28:35.926Z,8.59
2022-10-13T04:31:03.418Z,8.64
2022-10-13T04:33:30.112Z,8.55
2022-10-13T04:35:57.372Z,8.54
2022-10-13T04:38:23.913Z,8.53
2022-10-13T04:40:50.487Z,8.49
2022-10-13T04:43:17.373Z,8.53
2022-10-13T04:45:43.877Z,8.54
2022-10-13T04:48:10.365Z,8.54
2022-10-13T04:50:36.796Z,8.56
2022-10-13T04:53:03.494Z,8.55
2022-10-13T04:55:30.089Z,8.53
2022-10-13T04:57:56.548Z,8.45
2022-10-13T05:00:23.064Z,8.41
2022-10-13T05:02:49.819Z,8.44
2022-10-13T05:05:16.366Z,8.43
2022-10-13T05:07:42.816Z,8.57
2022-10-13T05:10:09.648Z,8.59
2022-10-13T05:12:36.186Z,8.64
2022-10-13T05:15:03.673Z,8.71
2022-10-13T05:17:35.304Z,8.65
2022-10-13T05:20:02.454Z,8.70
2022-10-13T05:22:28.914Z,8.71
2022-10-13T05:24:55.318Z,8.74
2022-10-13T05:27:23.145Z,8.77
2022-10-13T05:29:49.652Z,8.89
2022-10-13T05:32:16.219Z,8.79
2022-10-13T05:34:42.860Z,8.81
2022-10-13T05:37:09.347Z,8.82
2022-10-13T05:39:35.873Z,8.90
2022-10-13T05:42:02.404Z,8.93
2022-10-13T05:44:29.832Z,8.94
2022-10-13T05:46:56.906Z,9.14
2022-10-13T05:49:23.391Z,9.14
2022-10-13T05:51:53.391Z,9.22
2022-10-13T05:54:24.387Z,9.35
2022-10-13T05:56:54.390Z,9.48
2022-10-13T05:59:26.760Z,9.82
2022-10-13T06:01:53.869Z,10.11
2022-10-13T06:04:24.241Z,10.32
2022-10-13T06:06:50.964Z,10.38
2022-10-13T06:09:17.698Z,10.50
2022-10-13T06:11:44.244Z,10.97
2022-10-13T06:14:10.645Z,11.55
2022-10-13T06:16:37.112Z,12.30
2022-10-13T06:19:05.089Z,12.73
2022-10-13T06:21:31.823Z,12.52
2022-10-13T06:23:58.333Z,12.25
2022-10-13T06:26:24.800Z,11.86
2022-10-13T06:28:55.614Z,11.52
2022-10-13T06:31:24.962Z,11.25
2022-10-13T06:33:51.502Z,11.06
2022-10-13T06:36:18.154Z,10.92
2022-10-13T06:38:44.636Z,10.76
2022-10-13T06:41:12.772Z,10.70
2022-10-13T06:43:40.563Z,10.66
2022-10-13T06:46:07.866Z,10.73
2022-10-13T06:48:34.749Z,10.85
2022-10-13T06:51:09.453Z,11.08
2022-10-13T06:53:35.872Z,12.23
2022-10-13T06:56:04.720Z,13.80
2022-10-13T06:58:31.339Z,15.02
2022-10-13T07:00:58.042Z,16.12
2022-10-13T07:03:25.294Z,16.77
2022-10-13T07:05:52.111Z,18.02
2022-10-13T07:08:19.076Z,17.79
2022-10-13T07:10:45.755Z,18.76
2022-10-13T07:13:12.192Z,19.62
2022-10-13T07:15:39.682Z,20.12
2022-10-13T07:18:08.451Z,20.85
2022-10-13T07:20:35.315Z,19.76
2022-10-13T07:23:01.916Z,18.65
2022-10-13T07:25:28.918Z,17.05
2022-10-13T07:27:55.643Z,16.89
2022-10-13T07:30:22.173Z,16.49
2022-10-13T07:32:48.843Z,16.26
2022-10-13T07:35:15.572Z,15.35
2022-10-13T07:37:42.085Z,16.31
2022-10-13T07:40:09.055Z,16.64
2022-10-13T07:42:35.564Z,17.71
2022-10-13T07:45:02.024Z,17.65
2022-10-13T07:47:28.935Z,19.24
2022-10-13T07:49:55.794Z,19.80
2022-10-13T07:52:22.681Z,20.10
2022-10-13T07:54:50.382Z,20.35
2022-10-13T07:57:17.087Z,19.20
2022-10-13T07:59:43.615Z,19.09
2022-10-13T08:02:10.085Z,18.64
2022-10-13T08:04:37.032Z,17.24
2022-10-13T08:07:05.572Z,16.07
2022-10-13T08:09:40.443Z,16.33
2022-10-13T08:12:06.905Z,17.04
2022-10-13T08:14:33.901Z,17.44
2022-10-13T08:17:01.519Z,16.80
2022-10-13T08:19:28.536Z,17.31
2022-10-13T08:21:59.572Z,17.08
2022-10-13T08:24:27.609Z,17.04
2022-10-13T08:26:54.037Z,17.18
2022-10-13T08:29:22.521Z,18.50
2022-10-13T08:31:53.912Z,20.59
2022-10-13T08:34:21.546Z,20.53
2022-10-13T08:36:48.771Z,20.95
2022-10-13T08:39:15.150Z,20.39
2022-10-13T08:41:46.511Z,19.31
2022-10-13T08:45:05.859Z,19.48
2022-10-13T08:47:30.305Z,21.30
2022-10-13T08:50:01.516Z,22.27
2022-10-13T08:52:43.875Z,21.84
2022-10-13T08:55:33.407Z,23.30
2022-10-13T08:58:01.245Z,24.55
2022-10-13T09:00:29.596Z,23.71
2022-10-13T09:03:19.892Z,24.07
2022-10-13T09:06:09.484Z,24.86
2022-10-13T09:08:45.606Z,21.98
2022-10-13T09:11:13.150Z,22.42
2022-10-13T09:13:40.162Z,22.37
2022-10-13T09:16:07.424Z,21.84
2022-10-13T09:18:34.728Z,24.15
2022-10-13T09:21:18.327Z,25.13
2022-10-13T09:23:49.914Z,24.23
2022-10-13T09:26:24.864Z,24.89
2022-10-13T09:28:52.626Z,24.55
2022-10-13T09:31:27.798Z,25.74
2022-10-13T09:34:12.324Z,24.46
2022-10-13T09:36:38.805Z,25.40
2022-10-13T09:39:14.508Z,27.08
2022-10-13T09:41:42.701Z,27.48
2022-10-13T09:44:27.844Z,27.14
2022-10-13T09:47:04.222Z,28.37
2022-10-13T09:49:38.243Z,29.09
2022-10-13T09:52:16.820Z,27.49
2022-10-13T09:55:02.080Z,28.12
2022-10-13T09:57:48.349Z,28.40
2022-10-13T10:00:26.657Z,26.08
2022-10-13T10:03:11.655Z,27.06
2022-10-13T10:05:55.390Z,26.02
2022-10-13T10:08:50.928Z,25.80
2022-10-13T10:11:25.381Z,25.90
2022-10-13T10:13:55.918Z,26.03
2022-10-13T10:16:32.105Z,25.79
2022-10-13T10:19:20.660Z,26.03
2022-10-13T10:22:03.931Z,24.99
2022-10-13T10:24:38.806Z,24.89
2022-10-13T10:30:04.402Z,24.86
2022-10-13T10:32:40.863Z,24.43
2022-10-13T10:35:45.317Z,25.00
2022-10-13T10:38:32.414Z,24.37
2022-10-13T10:41:25.760Z,23.86
2022-10-13T10:44:00.885Z,23.29
2022-10-13T10:46:40.817Z,22.64
2022-10-13T10:49:33.849Z,22.62
2022-10-13T10:52:02.109Z,22.34
2022-10-13T10:54:49.071Z,22.13
2022-10-13T10:57:51.316Z,21.75
2022-10-13T11:00:21.981Z,21.26
2022-10-13T11:03:10.835Z,21.33
2022-10-13T11:06:15.100Z,20.69
2022-10-13T11:08:43.675Z,21.27
2022-10-13T11:11:24.759Z,21.36
2022-10-13T11:14:06.588Z,22.13
2022-10-13T11:16:55.465Z,22.47
2022-10-13T11:19:32.194Z,22.34
2022-10-13T11:21:58.753Z,22.01
2022-10-13T11:24:34.938Z,22.57
2022-10-13T11:27:07.593Z,22.83
2022-10-13T11:29:51.617Z,23.38
2022-10-13T11:32:36.175Z,22.78
2022-10-13T11:35:05.749Z,24.19
2022-10-13T11:38:05.590Z,23.60
2022-10-13T11:40:58.262Z,22.88
2022-10-13T11:43:32.813Z,22.56
2022-10-13T11:46:11.356Z,23.41
2022-10-13T11:49:18.417Z,24.25
2022-10-13T11:51:57.254Z,25.51
2022-10-13T11:54:32.421Z,26.32
2022-10-13T11:56:59.066Z,26.12
2022-10-13T11:59:33.531Z,25.98
2022-10-13T12:02:20.837Z,25.11
2022-10-13T12:05:00.769Z,25.20
2022-10-13T12:07:32.705Z,24.88
2022-10-13T12:09:59.402Z,24.59
2022-10-13T12:12:26.231Z,23.97
2022-10-13T12:14:54.914Z,23.55
2022-10-13T12:17:24.461Z,23.41
2022-10-13T12:19:51.309Z,23.33
2022-10-13T12:22:17.853Z,23.71
2022-10-13T12:25:00.105Z,23.47
2022-10-13T12:27:27.940Z,23.05
2022-10-13T12:29:54.533Z,23.06
2022-10-13T12:32:31.451Z,23.05
2022-10-13T12:35:19.710Z,22.68
2022-10-13T12:37:47.058Z,22.91
2022-10-13T12:40:15.897Z,22.61
2022-10-13T12:42:42.483Z,22.40
2022-10-13T12:45:20.125Z,22.26
2022-10-13T12:47:47.384Z,22.41
2022-10-13T12:50:40.653Z,22.34
2022-10-13T12:53:24.743Z,22.04
2022-10-13T12:55:58.670Z,22.48
2022-10-13T12:58:33.674Z,22.37
2022-10-13T13:01:21.507Z,22.30
2022-10-13T13:03:57.559Z,22.37
2022-10-13T13:06:29.675Z,22.51
2022-10-13T13:09:20.929Z,22.33
2022-10-13T13:11:49.090Z,21.86
2022-10-13T13:14:37.622Z,21.67
2022-10-13T13:20:29.564Z,21.26
2022-10-13T13:22:56.114Z,21.18
2022-10-13T13:25:23.122Z,21.08
2022-10-13T13:27:50.251Z,21.04
2022-10-13T13:30:19.311Z,20.73
2022-10-13T13:32:45.732Z,20.17
2022-10-13T13:35:12.656Z,19.88
2022-10-13T13:37:42.083Z,19.84
2022-10-13T13:40:15.397Z,19.98
2022-10-13T13:42:41.895Z,19.85
2022-10-13T13:45:12.857Z,19.75
2022-10-13T13:47:39.565Z,19.77
2022-10-13T13:50:13.912Z,19.58
2022-10-13T13:52:41.693Z,19.87
2022-10-13T13:55:08.741Z,20.10
2022-10-13T13:57:35.368Z,20.08
2022-10-13T14:00:02.018Z,20.13
2022-10-13T14:02:28.611Z,20.25
2022-10-13T14:04:55.274Z,20.11
2022-10-13T14:07:22.084Z,20.13
2022-10-13T14:09:48.753Z,20.26
2022-10-13T14:12:15.175Z,20.34
2022-10-13T14:14:41.614Z,20.47
2022-10-13T14:17:08.299Z,20.39
2022-10-13T14:19:34.808Z,20.36
2022-10-13T14:22:09.209Z,20.37
2022-10-13T14:24:35.978Z,20.45
2022-10-13T14:27:02.645Z,20.37
2022-10-13T14:29:29.085Z,20.22
2022-10-13T14:31:55.619Z,19.90
2022-10-13T14:34:22.165Z,19.74
2022-10-13T14:36:48.645Z,19.77
2022-10-13T14:39:15.286Z,19.82
2022-10-13T14:41:41.775Z,19.56
2022-10-13T14:44:11.499Z,19.52
2022-10-13T14:46:38.013Z,19.42
2022-10-13T14:49:04.501Z,19.32
2022-10-13T14:51:45.632Z,19.26
2022-10-13T14:54:12.102Z,19.11
2022-10-13T14:56:38.776Z,19.10
2022-10-13T14:59:07.034Z,19.00
2022-10-13T15:01:34.332Z,18.92
2022-10-13T15:04:01.847Z,18.99
2022-10-13T15:06:28.666Z,18.83
2022-10-13T15:08:55.420Z,18.86
2022-10-13T15:11:22.413Z,18.85
2022-10-13T15:13:48.930Z,18.73
2022-10-13T15:16:21.132Z,18.94
2022-10-13T15:18:48.182Z,18.83
2022-10-13T15:21:16.782Z,18.79
2022-10-13T15:23:43.776Z,18.77
2022-10-13T15:26:12.008Z,18.80
2022-10-13T15:28:40.744Z,18.62
2022-10-13T15:31:07.292Z,18.66
2022-10-13T15:33:33.774Z,18.55
2022-10-13T15:36:00.501Z,18.38
2022-10-13T15:38:27.117Z,18.38
2022-10-13T15:40:59.476Z,18.31
2022-10-13T15:43:25.981Z,18.13
2022-10-13T15:45:57.633Z,18.01
2022-10-13T15:48:24.241Z,18.04
2022-10-13T15:50:50.647Z,17.95
2022-10-13T15:53:17.395Z,17.94
2022-10-13T15:55:43.804Z,17.89
2022-10-13T15:58:13.676Z,17.89
2022-10-13T16:00:40.872Z,17.78
2022-10-13T16:03:07.669Z,17.72
2022-10-13T16:05:34.053Z,17.66
2022-10-13T16:08:00.435Z,17.59
2022-10-13T16:10:27.079Z,17.45
2022-10-13T16:12:54.902Z,17.35
2022-10-13T16:15:21.289Z,17.37
2022-10-13T16:17:47.735Z,17.17
2022-10-13T16:20:14.685Z,17.02
2022-10-13T16:22:41.120Z,16.93
2022-10-13T16:25:08.044Z,16.79
2022-10-13T16:27:34.437Z,16.68
2022-10-13T16:30:00.866Z,16.43
2022-10-13T16:32:27.259Z,16.37
2022-10-13T16:34:53.663Z,16.16
2022-10-13T16:37:20.622Z,15.95
2022-10-13T16:39:51.441Z,15.85
2022-10-13T16:42:18.503Z,15.86
2022-10-13T16:44:45.085Z,15.81
2022-10-13T16:47:15.941Z,15.61
2022-10-13T16:49:44.704Z,15.51
2022-10-13T16:52:11.131Z,15.56
2022-10-13T16:54:37.634Z,15.54
2022-10-13T16:57:04.159Z,15.51
2022-10-13T16:59:30.648Z,15.51
2022-10-13T17:01:57.867Z,15.49
2022-10-13T17:04:24.613Z,15.46
2022-10-13T17:06:51.333Z,15.41
2022-10-13T17:09:17.694Z,15.40
2022-10-13T17:11:44.125Z,15.36
2022-10-13T17:14:12.688Z,15.37
2022-10-13T17:16:39.145Z,15.39
2022-10-13T17:19:06.951Z,15.38
2022-10-13T17:21:33.756Z,15.29
2022-10-13T17:24:00.156Z,15.24
2022-10-13T17:26:26.836Z,15.17
2022-10-13T17:28:53.809Z,15.22
2022-10-13T17:31:22.516Z,15.16
2022-10-13T17:33:49.842Z,15.09
2022-10-13T17:36:20.458Z,14.95
2022-10-13T17:38:48.085Z,14.83
2022-10-13T17:41:15.103Z,14.75
2022-10-13T17:43:41.677Z,14.61
2022-10-13T17:46:34.921Z,14.57
2022-10-13T17:48:59.424Z,14.39
2022-10-13T17:51:26.147Z,14.34
2022-10-13T17:53:55.052Z,14.30
2022-10-13T17:56:23.762Z,14.14
2022-10-13T17:58:50.965Z,14.08
2022-10-13T18:01:23.094Z,14.01
2022-10-13T18:03:51.811Z,13.98
2022-10-13T18:06:20.842Z,13.98
2022-10-13T18:08:47.298Z,14.03
2022-10-13T18:11:15.654Z,14.06
2022-10-13T18:13:43.322Z,14.12
2022-10-13T18:16:12.669Z,14.24
2022-10-13T18:18:39.127Z,14.21
2022-10-13T18:21:07.152Z,14.27
2022-10-13T18:23:37.430Z,14.33
2022-10-13T18:26:09.703Z,14.29
2022-10-13T18:28:40.112Z,14.32
2022-10-13T18:31:23.038Z,14.31
2022-10-13T18:33:50.000Z,14.35
2022-10-13T18:36:24.541Z,14.40
2022-10-13T18:38:52.123Z,14.38
2022-10-13T18:41:21.123Z,14.40
2022-10-13T18:43:47.679Z,14.41
2022-10-13T18:46:14.243Z,14.45
2022-10-13T18:48:40.997Z,14.47
2022-10-13T18:51:09.359Z,14.51
2022-10-13T18:53:38.563Z,14.50
2022-10-13T18:56:07.024Z,14.59
2022-10-13T18:58:33.939Z,14.54
2022-10-13T19:01:06.210Z,14.54
2022-10-13T19:03:34.771Z,14.57
2022-10-13T19:06:06.351Z,14.49
2022-10-13T19:08:33.055Z,14.40
2022-10-13T19:10:59.506Z,14.36
2022-10-13T19:13:26.589Z,14.28
2022-10-13T19:16:02.826Z,14.22
2022-10-13T19:18:29.523Z,14.06
2022-10-13T19:20:56.008Z,13.96
2022-10-13T19:23:22.481Z,13.83
2022-10-13T19:25:49.230Z,13.70
2022-10-13T19:28:15.834Z,13.67
2022-10-13T19:30:42.734Z,13.47
2022-10-13T19:33:10.120Z,13.44
2022-10-13T19:35:52.732Z,13.30
2022-10-13T19:38:19.298Z,13.21
2022-10-13T19:40:49.596Z,13.24
2022-10-13T19:43:19.741Z,13.15
2022-10-13T19:45:57.421Z,13.04
2022-10-13T19:48:26.447Z,12.98
2022-10-13T19:50:53.032Z,12.88
2022-10-13T19:53:19.699Z,12.79
2022-10-13T19:55:47.641Z,12.69
2022-10-13T19:58:16.153Z,12.66
2022-10-13T20:00:44.642Z,12.59
2022-10-13T20:03:12.170Z,12.44
2022-10-13T20:05:40.430Z,12.40
2022-10-13T20:08:08.226Z,12.43
2022-10-13T20:10:39.086Z,12.31
2022-10-13T20:13:06.959Z,12.20
2022-10-13T20:15:33.966Z,12.17
2022-10-13T20:18:09.243Z,12.12
2022-10-13T20:20:36.348Z,12.05
2022-10-13T20:23:02.821Z,11.99
2022-10-13T20:25:29.940Z,11.93
2022-10-13T20:27:56.474Z,11.91
2022-10-13T20:30:23.131Z,11.87
2022-10-13T20:32:49.576Z,11.85
2022-10-13T20:35:16.120Z,11.76
2022-10-13T20:37:42.510Z,11.72
2022-10-13T20:40:09.318Z,11.66
2022-10-13T20:42:37.036Z,11.63
2022-10-13T20:45:04.401Z,11.56
2022-10-13T20:47:30.858Z,11.52
2022-10-13T20:49:57.340Z,11.49
2022-10-13T20:52:23.865Z,11.53
2022-10-13T20:54:50.273Z,11.58
2022-10-13T20:57:16.695Z,11.65
2022-10-13T20:59:43.098Z,11.75
2022-10-13T21:02:12.967Z,11.77
2022-10-13T21:04:39.543Z,11.84
2022-10-13T21:07:06.023Z,11.94
2022-10-13T21:09:32.613Z,12.00
2022-10-13T21:11:59.056Z,11.97
2022-10-13T21:14:25.544Z,11.94
2022-10-13T21:16:52.099Z,11.97
2022-10-13T21:19:18.600Z,11.95
2022-10-13T21:21:45.040Z,11.94
2022-10-13T21:24:11.477Z,11.93
2022-10-13T21:26:38.083Z,11.87
2022-10-13T21:29:05.253Z,11.85
2022-10-13T21:31:31.860Z,11.77
2022-10-13T21:33:58.433Z,11.69
2022-10-13T21:36:30.653Z,11.64
2022-10-13T21:38:59.814Z,11.61
2022-10-13T21:41:26.763Z,11.58
2022-10-13T21:43:54.028Z,11.49
2022-10-13T21:46:25.448Z,11.53
2022-10-13T21:48:56.502Z,11.45
2022-10-13T21:51:34.631Z,11.42
2022-10-13T21:54:05.961Z,11.40
2022-10-13T21:56:33.366Z,11.34
2022-10-13T21:59:00.358Z,11.42
2022-10-13T22:01:27.268Z,11.49
2022-10-13T22:03:56.244Z,11.51
2022-10-13T22:06:22.803Z,11.44
2022-10-13T22:08:50.829Z,11.35
2022-10-13T22:11:17.997Z,11.29
2022-10-13T22:13:44.459Z,11.30
2022-10-13T22:16:16.921Z,11.26
2022-10-13T22:18:43.672Z,11.24
2022-10-13T22:21:18.526Z,11.23
2022-10-13T22:23:45.499Z,11.23
2022-10-13T22:26:12.851Z,11.19
2022-10-13T22:28:42.516Z,11.31
2022-10-13T22:31:11.987Z,11.32
2022-10-13T22:33:39.944Z,11.38
2022-10-13T22:36:08.425Z,11.46
2022-10-13T22:38:35.506Z,11.49
2022-10-13T22:41:03.759Z,11.48
2022-10-13T22:43:30.218Z,11.49
2022-10-13T22:45:56.727Z,11.42
2022-10-13T22:48:23.236Z,11.45
2022-10-13T22:50:49.624Z,11.45
2022-10-13T22:53:16.096Z,11.43
2022-10-13T22:55:42.652Z,11.44
2022-10-13T22:58:12.254Z,11.42
2022-10-13T23:00:39.053Z,11.42
2022-10-13T23:03:06.257Z,11.36
2022-10-13T23:05:32.711Z,11.32
2022-10-13T23:07:59.183Z,11.26
2022-10-13T23:10:25.701Z,11.21
2022-10-13T23:12:52.146Z,11.16
2022-10-13T23:15:24.883Z,11.04
2022-10-13T23:17:52.005Z,10.98
2022-10-13T23:20:19.598Z,10.92
2022-10-13T23:22:46.245Z,10.75
2022-10-13T23:25:12.912Z,10.76
2022-10-13T23:27:39.667Z,10.67
2022-10-13T23:30:07.410Z,10.61
2022-10-13T23:32:34.855Z,10.57
2022-10-13T23:35:01.522Z,10.54
2022-10-13T23:37:27.941Z,10.53
2022-10-13T23:39:54.361Z,10.48
2022-10-13T23:42:20.738Z,10.41
2022-10-13T23:44:47.217Z,10.38
2022-10-13T23:47:13.779Z,10.31
2022-10-13T23:49:40.197Z,10.24
2022-10-13T23:52:10.791Z,10.19
2022-10-13T23:54:37.671Z,10.14
2022-10-13T23:57:04.198Z,10.15
2022-10-13T23:59:30.698Z,10.16
